CSN630 RJAA-ZYTL
Flight info
| Callsign | CSN630 |
|---|---|
| Flight time | 2h 45m |
| Altitude | 36000 |
| Route | ENPAR Y16 SAPRA G585 BULGA/N0453F380 G585 SEL G597 AGAVO/K0841S1160 G597 DONVO A326 SANKO W579 RUPID RUP07A |
| Aircraft | A320/M-SDE3FGHIRWY/LB1 |
Departure
| Time | 2026-04-26 12:35 |
|---|---|
| Airport | Narita International Airport (RJAA) |
Arrival
| Time | 2026-04-26 15:21 |
|---|---|
| Airport | Dalian Zhoushuizi International Airport (ZYTL) |
| Time | Latitude | Longitude | Altitude | Speed | Heading |
|---|---|---|---|---|---|
| 2026-04-26 12:15 | 35.76981 | 140.37674 | 144 ft | 0 kts | 59° |
| 2026-04-26 12:24 | 35.76971 | 140.37652 | 144 ft | 2 kts | 68° |
| 2026-04-26 12:25 | 35.76963 | 140.37624 | 144 ft | 0 kts | 53° |
| 2026-04-26 12:28 | 35.76976 | 140.37616 | 144 ft | 6 kts | 323° |
| 2026-04-26 12:28 | 35.76999 | 140.37573 | 143 ft | 7 kts | 300° |
| 2026-04-26 12:28 | 35.77024 | 140.37521 | 143 ft | 7 kts | 302° |
| 2026-04-26 12:29 | 35.77044 | 140.37473 | 143 ft | 6 kts | 290° |
| 2026-04-26 12:29 | 35.77055 | 140.37402 | 143 ft | 9 kts | 279° |
| 2026-04-26 12:29 | 35.77120 | 140.37313 | 143 ft | 6 kts | 332° |
| 2026-04-26 12:30 | 35.77150 | 140.37293 | 143 ft | 6 kts | 332° |
| 2026-04-26 12:30 | 35.77181 | 140.37273 | 143 ft | 5 kts | 332° |
| 2026-04-26 12:30 | 35.77206 | 140.37256 | 143 ft | 4 kts | 330° |
| 2026-04-26 12:31 | 35.77248 | 140.37225 | 143 ft | 5 kts | 329° |
| 2026-04-26 12:31 | 35.77319 | 140.37173 | 143 ft | 18 kts | 329° |
| 2026-04-26 12:31 | 35.77415 | 140.37103 | 143 ft | 12 kts | 329° |
| 2026-04-26 12:31 | 35.77468 | 140.37065 | 143 ft | 7 kts | 327° |
| 2026-04-26 12:32 | 35.77494 | 140.37028 | 143 ft | 5 kts | 297° |
| 2026-04-26 12:32 | 35.77495 | 140.36992 | 143 ft | 3 kts | 257° |
| 2026-04-26 12:32 | 35.77490 | 140.36977 | 144 ft | 0 kts | 246° |
| 2026-04-26 12:33 | 35.77475 | 140.36937 | 144 ft | 12 kts | 245° |
| 2026-04-26 12:33 | 35.77420 | 140.36862 | 143 ft | 12 kts | 198° |
| 2026-04-26 12:34 | 35.77343 | 140.36890 | 142 ft | 12 kts | 143° |
| 2026-04-26 12:34 | 35.77289 | 140.36942 | 142 ft | 0 kts | 145° |
| 2026-04-26 12:34 | 35.77272 | 140.36956 | 142 ft | 19 kts | 147° |
| 2026-04-26 12:35 | 35.76988 | 140.37172 | 142 ft | 85 kts | 147° |
| 2026-04-26 12:35 | 35.76448 | 140.37575 | 145 ft | 132 kts | 149° |
| 2026-04-26 12:35 | 35.75752 | 140.38152 | 169 ft | 167 kts | 145° |
| 2026-04-26 12:35 | 35.74824 | 140.38920 | 780 ft | 165 kts | 144° |
| 2026-04-26 12:36 | 35.73837 | 140.39670 | 1515 ft | 166 kts | 150° |
| 2026-04-26 12:36 | 35.72773 | 140.40398 | 1931 ft | 186 kts | 151° |
| 2026-04-26 12:36 | 35.71570 | 140.41217 | 2255 ft | 211 kts | 151° |
| 2026-04-26 12:36 | 35.70200 | 140.42160 | 2701 ft | 235 kts | 150° |
| 2026-04-26 12:37 | 35.68714 | 140.43197 | 3377 ft | 248 kts | 151° |
| 2026-04-26 12:37 | 35.67198 | 140.44267 | 4205 ft | 256 kts | 150° |
| 2026-04-26 12:37 | 35.65629 | 140.45380 | 5055 ft | 262 kts | 150° |
| 2026-04-26 12:37 | 35.64056 | 140.46501 | 5911 ft | 267 kts | 151° |
| 2026-04-26 12:38 | 35.62414 | 140.47673 | 6745 ft | 272 kts | 151° |
| 2026-04-26 12:38 | 35.60758 | 140.48857 | 7565 ft | 277 kts | 151° |
| 2026-04-26 12:38 | 35.59085 | 140.50055 | 8396 ft | 281 kts | 152° |
| 2026-04-26 12:38 | 35.57383 | 140.51274 | 9222 ft | 285 kts | 152° |
| 2026-04-26 12:39 | 35.55670 | 140.52497 | 10047 ft | 289 kts | 153° |
| 2026-04-26 12:39 | 35.53800 | 140.53311 | 10736 ft | 291 kts | 174° |
| 2026-04-26 12:39 | 35.51732 | 140.53098 | 11002 ft | 310 kts | 200° |
| 2026-04-26 12:39 | 35.49854 | 140.51627 | 11213 ft | 331 kts | 227° |
| 2026-04-26 12:40 | 35.48547 | 140.49204 | 11647 ft | 344 kts | 239° |
| 2026-04-26 12:40 | 35.47512 | 140.46541 | 12327 ft | 350 kts | 253° |
| 2026-04-26 12:40 | 35.47268 | 140.43578 | 13030 ft | 357 kts | 274° |
| 2026-04-26 12:40 | 35.47968 | 140.40634 | 13737 ft | 366 kts | 296° |
| 2026-04-26 12:41 | 35.49609 | 140.38142 | 14373 ft | 377 kts | 319° |
| 2026-04-26 12:41 | 35.51814 | 140.36390 | 15013 ft | 382 kts | 326° |
| 2026-04-26 12:41 | 35.54129 | 140.34719 | 15668 ft | 385 kts | 328° |
| 2026-04-26 12:41 | 35.56576 | 140.33379 | 16303 ft | 391 kts | 339° |
| 2026-04-26 12:42 | 35.59249 | 140.32493 | 16949 ft | 395 kts | 342° |
| 2026-04-26 12:42 | 35.61889 | 140.31654 | 17575 ft | 398 kts | 342° |
| 2026-04-26 12:42 | 35.64585 | 140.30777 | 18213 ft | 401 kts | 341° |
| 2026-04-26 12:42 | 35.67282 | 140.29889 | 18774 ft | 403 kts | 341° |
| 2026-04-26 12:43 | 35.70019 | 140.28983 | 19290 ft | 407 kts | 340° |
| 2026-04-26 12:43 | 35.72681 | 140.27763 | 19791 ft | 405 kts | 328° |
| 2026-04-26 12:43 | 35.75025 | 140.25892 | 20294 ft | 401 kts | 315° |
| 2026-04-26 12:43 | 35.76960 | 140.23472 | 20803 ft | 397 kts | 303° |
| 2026-04-26 12:44 | 35.78298 | 140.20927 | 21249 ft | 394 kts | 292° |
| 2026-04-26 12:44 | 35.79299 | 140.17811 | 21758 ft | 391 kts | 282° |
| 2026-04-26 12:44 | 35.80013 | 140.14572 | 22271 ft | 393 kts | 281° |
| 2026-04-26 12:44 | 35.80738 | 140.11257 | 22756 ft | 396 kts | 281° |
| 2026-04-26 12:45 | 35.81442 | 140.08028 | 23232 ft | 398 kts | 280° |
| 2026-04-26 12:45 | 35.82160 | 140.04718 | 23693 ft | 400 kts | 280° |
| 2026-04-26 12:45 | 35.82877 | 140.01399 | 24076 ft | 403 kts | 279° |
| 2026-04-26 12:45 | 35.83603 | 139.98032 | 24469 ft | 404 kts | 279° |
| 2026-04-26 12:46 | 35.84328 | 139.94678 | 24853 ft | 405 kts | 279° |
| 2026-04-26 12:46 | 35.85051 | 139.91341 | 25233 ft | 407 kts | 279° |
| 2026-04-26 12:46 | 35.85789 | 139.87914 | 25631 ft | 408 kts | 279° |
| 2026-04-26 12:46 | 35.86515 | 139.84548 | 25995 ft | 409 kts | 278° |
| 2026-04-26 12:47 | 35.87247 | 139.81159 | 26373 ft | 410 kts | 278° |
| 2026-04-26 12:47 | 35.87976 | 139.77763 | 26731 ft | 411 kts | 278° |
| 2026-04-26 12:47 | 35.88712 | 139.74332 | 27084 ft | 412 kts | 278° |
| 2026-04-26 12:47 | 35.89441 | 139.70924 | 27437 ft | 413 kts | 278° |
| 2026-04-26 12:48 | 35.90173 | 139.67485 | 27775 ft | 414 kts | 277° |
| 2026-04-26 12:48 | 35.90906 | 139.64045 | 28114 ft | 415 kts | 277° |
| 2026-04-26 12:48 | 35.91647 | 139.60561 | 28450 ft | 416 kts | 276° |
| 2026-04-26 12:48 | 35.92160 | 139.57086 | 28758 ft | 412 kts | 272° |
| 2026-04-26 12:49 | 35.92588 | 139.53626 | 29051 ft | 412 kts | 271° |
| 2026-04-26 12:49 | 35.93017 | 139.50110 | 29352 ft | 413 kts | 271° |
| 2026-04-26 12:49 | 35.93439 | 139.46608 | 29638 ft | 413 kts | 271° |
| 2026-04-26 12:49 | 35.93864 | 139.43099 | 30036 ft | 411 kts | 271° |
| 2026-04-26 12:50 | 35.94289 | 139.39623 | 30412 ft | 408 kts | 271° |
| 2026-04-26 12:50 | 35.94713 | 139.36147 | 30765 ft | 405 kts | 271° |
| 2026-04-26 12:50 | 35.95132 | 139.32693 | 31109 ft | 403 kts | 271° |
| 2026-04-26 12:50 | 35.95542 | 139.29292 | 31439 ft | 401 kts | 270° |
| 2026-04-26 12:51 | 35.95952 | 139.25888 | 31776 ft | 399 kts | 270° |
| 2026-04-26 12:51 | 35.96355 | 139.22530 | 32070 ft | 398 kts | 270° |
| 2026-04-26 12:51 | 35.96758 | 139.19161 | 32407 ft | 396 kts | 270° |
| 2026-04-26 12:51 | 35.97162 | 139.15789 | 32760 ft | 394 kts | 270° |
| 2026-04-26 12:52 | 35.97563 | 139.12455 | 33105 ft | 392 kts | 270° |
| 2026-04-26 12:52 | 35.97961 | 139.09139 | 33433 ft | 390 kts | 269° |
| 2026-04-26 12:52 | 35.98363 | 139.05779 | 33762 ft | 389 kts | 269° |
| 2026-04-26 12:52 | 35.98624 | 139.03597 | 33980 ft | 388 kts | 269° |
| 2026-04-26 12:53 | 35.99144 | 138.99205 | 34377 ft | 385 kts | 269° |
| 2026-04-26 12:53 | 35.99528 | 138.95938 | 34679 ft | 383 kts | 269° |
| 2026-04-26 12:53 | 35.99907 | 138.92698 | 35017 ft | 380 kts | 269° |
| 2026-04-26 12:53 | 36.00281 | 138.89489 | 35326 ft | 376 kts | 268° |
| 2026-04-26 12:54 | 36.00431 | 138.87388 | 35535 ft | 368 kts | 263° |
| 2026-04-26 12:54 | 36.00465 | 138.84231 | 35868 ft | 364 kts | 261° |
| 2026-04-26 12:54 | 36.00498 | 138.81135 | 36083 ft | 362 kts | 262° |
| 2026-04-26 12:55 | 36.00561 | 138.74928 | 36136 ft | 361 kts | 262° |
| 2026-04-26 12:55 | 36.00630 | 138.68745 | 36120 ft | 360 kts | 262° |
| 2026-04-26 12:56 | 36.00697 | 138.62546 | 36123 ft | 360 kts | 262° |
| 2026-04-26 12:56 | 36.00755 | 138.56361 | 36120 ft | 360 kts | 262° |
| 2026-04-26 12:57 | 36.00810 | 138.50186 | 36121 ft | 359 kts | 262° |
| 2026-04-26 12:57 | 36.00860 | 138.43974 | 36114 ft | 359 kts | 262° |
| 2026-04-26 12:58 | 36.00935 | 138.34760 | 36106 ft | 360 kts | 262° |
| 2026-04-26 12:58 | 36.00987 | 138.28580 | 36107 ft | 360 kts | 262° |
| 2026-04-26 12:59 | 36.01029 | 138.22386 | 36107 ft | 360 kts | 262° |
| 2026-04-26 12:59 | 36.01059 | 138.16198 | 36108 ft | 360 kts | 262° |
| 2026-04-26 13:00 | 36.01093 | 138.09997 | 36100 ft | 360 kts | 262° |
| 2026-04-26 13:00 | 36.01131 | 138.03826 | 36094 ft | 360 kts | 262° |
| 2026-04-26 13:01 | 36.01166 | 137.97624 | 36089 ft | 361 kts | 262° |
| 2026-04-26 13:01 | 36.01198 | 137.91450 | 36083 ft | 361 kts | 261° |
| 2026-04-26 13:02 | 36.01218 | 137.85221 | 36077 ft | 362 kts | 261° |
| 2026-04-26 13:02 | 36.01230 | 137.78982 | 36060 ft | 362 kts | 261° |
| 2026-04-26 13:03 | 36.01245 | 137.72782 | 36065 ft | 363 kts | 261° |
| 2026-04-26 13:03 | 36.01260 | 137.66560 | 36073 ft | 363 kts | 261° |
| 2026-04-26 13:04 | 36.01277 | 137.60266 | 36077 ft | 364 kts | 261° |
| 2026-04-26 13:04 | 36.01281 | 137.54035 | 36069 ft | 363 kts | 261° |
| 2026-04-26 13:05 | 36.01279 | 137.47807 | 36047 ft | 362 kts | 261° |
| 2026-04-26 13:05 | 36.01283 | 137.41562 | 36056 ft | 363 kts | 260° |
| 2026-04-26 13:06 | 36.01287 | 137.35317 | 36055 ft | 363 kts | 260° |
| 2026-04-26 13:06 | 36.01277 | 137.29073 | 36054 ft | 364 kts | 260° |
| 2026-04-26 13:07 | 36.01265 | 137.22813 | 36055 ft | 364 kts | 260° |
| 2026-04-26 13:07 | 36.01255 | 137.16575 | 36050 ft | 364 kts | 261° |
| 2026-04-26 13:08 | 36.01237 | 137.10284 | 36048 ft | 365 kts | 260° |
| 2026-04-26 13:08 | 36.01216 | 137.04010 | 36046 ft | 365 kts | 260° |
| 2026-04-26 13:09 | 36.01189 | 136.97695 | 36040 ft | 366 kts | 259° |
| 2026-04-26 13:09 | 36.01167 | 136.91434 | 36041 ft | 366 kts | 259° |
| 2026-04-26 13:10 | 36.01139 | 136.85119 | 36034 ft | 366 kts | 259° |
| 2026-04-26 13:10 | 36.01108 | 136.78823 | 36026 ft | 367 kts | 259° |
| 2026-04-26 13:11 | 36.01069 | 136.72512 | 36017 ft | 367 kts | 259° |
| 2026-04-26 13:11 | 36.01033 | 136.66205 | 36008 ft | 368 kts | 259° |
| 2026-04-26 13:12 | 36.00989 | 136.59837 | 36008 ft | 369 kts | 259° |
| 2026-04-26 13:12 | 36.00948 | 136.53534 | 36006 ft | 369 kts | 259° |
| 2026-04-26 13:13 | 36.00897 | 136.47168 | 36002 ft | 368 kts | 259° |
| 2026-04-26 13:13 | 36.00835 | 136.40833 | 36002 ft | 368 kts | 259° |
| 2026-04-26 13:14 | 36.00781 | 136.34508 | 35996 ft | 369 kts | 259° |
| 2026-04-26 13:14 | 36.00723 | 136.28213 | 35988 ft | 369 kts | 259° |
| 2026-04-26 13:15 | 36.00655 | 136.21857 | 35990 ft | 369 kts | 259° |
| 2026-04-26 13:15 | 36.00600 | 136.16563 | 35989 ft | 370 kts | 259° |
| 2026-04-26 13:16 | 36.00521 | 136.09161 | 35988 ft | 370 kts | 259° |
| 2026-04-26 13:16 | 36.00447 | 136.02806 | 35981 ft | 370 kts | 258° |
| 2026-04-26 13:17 | 36.00331 | 135.93257 | 35986 ft | 371 kts | 258° |
| 2026-04-26 13:18 | 36.00208 | 135.83684 | 35977 ft | 372 kts | 258° |
| 2026-04-26 13:19 | 36.00070 | 135.74079 | 35972 ft | 373 kts | 258° |
| 2026-04-26 13:19 | 35.99979 | 135.67641 | 35974 ft | 374 kts | 258° |
| 2026-04-26 13:20 | 35.99886 | 135.61216 | 35974 ft | 374 kts | 258° |
| 2026-04-26 13:20 | 35.99788 | 135.54816 | 35974 ft | 375 kts | 258° |
| 2026-04-26 13:21 | 35.99686 | 135.48338 | 35974 ft | 376 kts | 258° |
| 2026-04-26 13:21 | 35.99572 | 135.41865 | 35974 ft | 377 kts | 258° |
| 2026-04-26 13:22 | 35.99461 | 135.35402 | 35974 ft | 378 kts | 258° |
| 2026-04-26 13:22 | 35.99349 | 135.28920 | 35973 ft | 379 kts | 258° |
| 2026-04-26 13:23 | 35.99233 | 135.22419 | 35970 ft | 379 kts | 257° |
| 2026-04-26 13:23 | 35.99106 | 135.15885 | 35972 ft | 380 kts | 257° |
| 2026-04-26 13:24 | 35.98975 | 135.09353 | 35972 ft | 381 kts | 257° |
| 2026-04-26 13:24 | 35.98845 | 135.02809 | 35973 ft | 382 kts | 257° |
| 2026-04-26 13:25 | 35.98738 | 134.97323 | 35974 ft | 382 kts | 257° |
| 2026-04-26 13:25 | 35.98608 | 134.90748 | 35975 ft | 383 kts | 257° |
| 2026-04-26 13:26 | 35.98467 | 134.84179 | 35973 ft | 383 kts | 257° |
| 2026-04-26 13:26 | 35.98318 | 134.77590 | 35969 ft | 384 kts | 256° |
| 2026-04-26 13:27 | 35.98172 | 134.70977 | 35970 ft | 385 kts | 256° |
| 2026-04-26 13:27 | 35.98014 | 134.64353 | 35971 ft | 386 kts | 256° |
| 2026-04-26 13:28 | 35.97852 | 134.57690 | 35970 ft | 387 kts | 256° |
| 2026-04-26 13:28 | 35.97697 | 134.51039 | 35972 ft | 388 kts | 256° |
| 2026-04-26 13:29 | 35.97536 | 134.44372 | 35966 ft | 389 kts | 256° |
| 2026-04-26 13:29 | 35.97367 | 134.37679 | 35962 ft | 390 kts | 256° |
| 2026-04-26 13:30 | 35.97192 | 134.30988 | 35965 ft | 391 kts | 256° |
| 2026-04-26 13:30 | 35.97005 | 134.24268 | 35956 ft | 392 kts | 256° |
| 2026-04-26 13:31 | 35.96819 | 134.17523 | 35956 ft | 393 kts | 257° |
| 2026-04-26 13:31 | 35.96633 | 134.10779 | 35957 ft | 395 kts | 257° |
| 2026-04-26 13:32 | 35.96445 | 134.03994 | 35957 ft | 396 kts | 257° |
| 2026-04-26 13:32 | 35.96248 | 133.97195 | 35958 ft | 397 kts | 257° |
| 2026-04-26 13:33 | 35.96042 | 133.90365 | 35959 ft | 398 kts | 257° |
| 2026-04-26 13:33 | 35.95839 | 133.83523 | 35957 ft | 400 kts | 257° |
| 2026-04-26 13:34 | 35.95641 | 133.76653 | 35955 ft | 401 kts | 258° |
| 2026-04-26 13:34 | 35.95427 | 133.69770 | 35955 ft | 401 kts | 258° |
| 2026-04-26 13:35 | 35.95207 | 133.62879 | 35956 ft | 402 kts | 258° |
| 2026-04-26 13:35 | 35.94987 | 133.55981 | 35959 ft | 403 kts | 258° |
| 2026-04-26 13:36 | 35.94756 | 133.49061 | 35961 ft | 403 kts | 258° |
| 2026-04-26 13:36 | 35.94525 | 133.42135 | 35958 ft | 404 kts | 258° |
| 2026-04-26 13:37 | 35.94288 | 133.35206 | 35954 ft | 405 kts | 259° |
| 2026-04-26 13:37 | 35.94048 | 133.28270 | 35955 ft | 405 kts | 259° |
| 2026-04-26 13:38 | 35.93798 | 133.21298 | 35952 ft | 406 kts | 259° |
| 2026-04-26 13:38 | 35.93545 | 133.14336 | 35947 ft | 407 kts | 259° |
| 2026-04-26 13:39 | 35.93296 | 133.07354 | 35952 ft | 408 kts | 260° |
| 2026-04-26 13:39 | 35.93041 | 133.00320 | 35952 ft | 408 kts | 260° |
| 2026-04-26 13:40 | 35.92782 | 132.93347 | 35951 ft | 409 kts | 260° |
| 2026-04-26 13:40 | 35.92510 | 132.86289 | 35947 ft | 410 kts | 261° |
| 2026-04-26 13:41 | 35.92238 | 132.79258 | 35946 ft | 410 kts | 261° |
| 2026-04-26 13:41 | 35.91960 | 132.72234 | 35944 ft | 411 kts | 261° |
| 2026-04-26 13:42 | 35.91678 | 132.65177 | 35940 ft | 412 kts | 261° |
| 2026-04-26 13:42 | 35.91393 | 132.58101 | 35938 ft | 413 kts | 261° |
| 2026-04-26 13:43 | 35.91100 | 132.51012 | 35925 ft | 414 kts | 261° |
| 2026-04-26 13:43 | 35.90807 | 132.43920 | 35939 ft | 415 kts | 261° |
| 2026-04-26 13:44 | 35.90507 | 132.36828 | 35930 ft | 416 kts | 261° |
| 2026-04-26 13:44 | 35.90198 | 132.29682 | 35930 ft | 416 kts | 261° |
| 2026-04-26 13:45 | 35.89892 | 132.22552 | 35927 ft | 417 kts | 262° |
| 2026-04-26 13:45 | 35.89585 | 132.15413 | 35946 ft | 417 kts | 262° |
| 2026-04-26 13:46 | 35.89265 | 132.08262 | 35933 ft | 418 kts | 262° |
| 2026-04-26 13:46 | 35.88936 | 132.01101 | 35937 ft | 418 kts | 262° |
| 2026-04-26 13:47 | 35.88651 | 131.94975 | 35930 ft | 418 kts | 262° |
| 2026-04-26 13:47 | 35.88320 | 131.87831 | 35929 ft | 419 kts | 262° |
| 2026-04-26 13:48 | 35.87980 | 131.80615 | 35932 ft | 419 kts | 263° |
| 2026-04-26 13:48 | 35.87644 | 131.73476 | 35945 ft | 419 kts | 263° |
| 2026-04-26 13:49 | 35.87356 | 131.67390 | 35932 ft | 420 kts | 263° |
| 2026-04-26 13:49 | 35.87008 | 131.60180 | 35936 ft | 420 kts | 263° |
| 2026-04-26 13:50 | 35.86651 | 131.52975 | 35943 ft | 420 kts | 263° |
| 2026-04-26 13:50 | 35.86299 | 131.45919 | 35933 ft | 420 kts | 263° |
| 2026-04-26 13:51 | 35.85936 | 131.38728 | 35935 ft | 420 kts | 264° |
| 2026-04-26 13:51 | 35.85589 | 131.31929 | 35936 ft | 420 kts | 264° |
| 2026-04-26 13:52 | 35.85240 | 131.25212 | 35933 ft | 420 kts | 264° |
| 2026-04-26 13:52 | 35.84866 | 131.18011 | 35948 ft | 420 kts | 264° |
| 2026-04-26 13:53 | 35.84493 | 131.10809 | 35942 ft | 421 kts | 264° |
| 2026-04-26 13:53 | 35.84112 | 131.03620 | 35953 ft | 421 kts | 264° |
| 2026-04-26 13:54 | 35.83718 | 130.96438 | 35950 ft | 421 kts | 264° |
| 2026-04-26 13:54 | 35.83324 | 130.89243 | 35938 ft | 420 kts | 264° |
| 2026-04-26 13:55 | 35.82790 | 130.79627 | 35945 ft | 420 kts | 264° |
| 2026-04-26 13:56 | 35.82987 | 130.67680 | 35942 ft | 423 kts | 277° |
| 2026-04-26 13:56 | 35.83908 | 130.60533 | 35944 ft | 423 kts | 277° |
| 2026-04-26 13:57 | 35.84815 | 130.53338 | 35946 ft | 422 kts | 277° |
| 2026-04-26 13:57 | 35.85563 | 130.47386 | 35949 ft | 422 kts | 277° |
| 2026-04-26 13:58 | 35.86456 | 130.40255 | 35947 ft | 421 kts | 277° |
| 2026-04-26 13:58 | 35.87348 | 130.33097 | 35949 ft | 421 kts | 277° |
| 2026-04-26 13:59 | 35.88237 | 130.25969 | 35946 ft | 421 kts | 277° |
| 2026-04-26 13:59 | 35.89129 | 130.18813 | 35945 ft | 420 kts | 277° |
| 2026-04-26 14:00 | 35.90877 | 130.04615 | 35943 ft | 419 kts | 277° |
| 2026-04-26 14:01 | 35.91749 | 129.97467 | 35934 ft | 419 kts | 277° |
| 2026-04-26 14:01 | 35.92612 | 129.90359 | 35936 ft | 419 kts | 277° |
| 2026-04-26 14:02 | 35.93467 | 129.83268 | 35935 ft | 418 kts | 277° |
| 2026-04-26 14:02 | 35.94322 | 129.76178 | 35932 ft | 418 kts | 277° |
| 2026-04-26 14:03 | 35.95169 | 129.69090 | 35934 ft | 417 kts | 276° |
| 2026-04-26 14:03 | 35.96011 | 129.62025 | 35935 ft | 416 kts | 276° |
| 2026-04-26 14:04 | 35.96841 | 129.54959 | 35939 ft | 415 kts | 276° |
| 2026-04-26 14:04 | 35.98061 | 129.47985 | 35936 ft | 418 kts | 289° |
| 2026-04-26 14:05 | 36.01001 | 129.41788 | 35935 ft | 422 kts | 302° |
| 2026-04-26 14:05 | 36.04439 | 129.35866 | 35938 ft | 422 kts | 302° |
| 2026-04-26 14:06 | 36.07839 | 129.29964 | 35942 ft | 421 kts | 302° |
| 2026-04-26 14:06 | 36.11220 | 129.24093 | 35946 ft | 421 kts | 302° |
| 2026-04-26 14:07 | 36.14628 | 129.18171 | 35947 ft | 421 kts | 302° |
| 2026-04-26 14:07 | 36.18018 | 129.12266 | 35951 ft | 420 kts | 301° |
| 2026-04-26 14:08 | 36.21396 | 129.06363 | 35950 ft | 420 kts | 301° |
| 2026-04-26 14:08 | 36.24768 | 129.00468 | 35956 ft | 420 kts | 302° |
| 2026-04-26 14:09 | 36.28142 | 128.94557 | 35949 ft | 420 kts | 301° |
| 2026-04-26 14:09 | 36.31504 | 128.88651 | 35948 ft | 419 kts | 301° |
| 2026-04-26 14:10 | 36.34861 | 128.82737 | 35954 ft | 419 kts | 301° |
| 2026-04-26 14:10 | 36.38222 | 128.76838 | 35950 ft | 419 kts | 301° |
| 2026-04-26 14:11 | 36.43279 | 128.67926 | 35946 ft | 418 kts | 301° |
| 2026-04-26 14:11 | 36.46627 | 128.61998 | 35947 ft | 418 kts | 301° |
| 2026-04-26 14:12 | 36.49953 | 128.56106 | 35947 ft | 418 kts | 301° |
| 2026-04-26 14:12 | 36.53300 | 128.50176 | 35946 ft | 418 kts | 301° |
| 2026-04-26 14:13 | 36.58304 | 128.41295 | 35944 ft | 417 kts | 301° |
| 2026-04-26 14:14 | 36.61638 | 128.35349 | 35948 ft | 417 kts | 301° |
| 2026-04-26 14:14 | 36.64965 | 128.29419 | 35954 ft | 418 kts | 301° |
| 2026-04-26 14:15 | 36.68342 | 128.23511 | 35958 ft | 418 kts | 302° |
| 2026-04-26 14:15 | 36.71687 | 128.17657 | 35960 ft | 417 kts | 301° |
| 2026-04-26 14:16 | 36.75060 | 128.11728 | 35963 ft | 417 kts | 301° |
| 2026-04-26 14:16 | 36.78409 | 128.05818 | 35968 ft | 417 kts | 301° |
| 2026-04-26 14:17 | 36.81762 | 127.99897 | 35961 ft | 417 kts | 301° |
| 2026-04-26 14:17 | 36.85096 | 127.93993 | 35966 ft | 417 kts | 301° |
| 2026-04-26 14:18 | 36.88441 | 127.88064 | 35971 ft | 417 kts | 301° |
| 2026-04-26 14:18 | 36.91773 | 127.82134 | 35975 ft | 417 kts | 301° |
| 2026-04-26 14:19 | 36.95097 | 127.76209 | 35973 ft | 417 kts | 301° |
| 2026-04-26 14:19 | 36.98437 | 127.70261 | 35967 ft | 417 kts | 301° |
| 2026-04-26 14:20 | 37.01762 | 127.64341 | 35964 ft | 416 kts | 301° |
| 2026-04-26 14:20 | 37.05093 | 127.58400 | 35958 ft | 417 kts | 301° |
| 2026-04-26 14:21 | 37.08421 | 127.52444 | 35959 ft | 417 kts | 301° |
| 2026-04-26 14:21 | 37.11735 | 127.46492 | 35960 ft | 417 kts | 301° |
| 2026-04-26 14:22 | 37.15065 | 127.40492 | 35970 ft | 417 kts | 301° |
| 2026-04-26 14:22 | 37.18386 | 127.34518 | 35978 ft | 417 kts | 301° |
| 2026-04-26 14:23 | 37.21700 | 127.28551 | 35986 ft | 417 kts | 301° |
| 2026-04-26 14:23 | 37.25004 | 127.22578 | 36000 ft | 417 kts | 301° |
| 2026-04-26 14:24 | 37.28318 | 127.16577 | 36012 ft | 417 kts | 301° |
| 2026-04-26 14:24 | 37.31614 | 127.10588 | 36009 ft | 417 kts | 300° |
| 2026-04-26 14:25 | 37.34913 | 127.04587 | 36015 ft | 417 kts | 300° |
| 2026-04-26 14:25 | 37.38198 | 126.98604 | 36010 ft | 416 kts | 300° |
| 2026-04-26 14:26 | 37.40731 | 126.92132 | 35998 ft | 408 kts | 283° |
| 2026-04-26 14:26 | 37.41344 | 126.85110 | 35996 ft | 404 kts | 269° |
| 2026-04-26 14:27 | 37.41307 | 126.78044 | 35992 ft | 404 kts | 269° |
| 2026-04-26 14:27 | 37.41277 | 126.72160 | 35993 ft | 405 kts | 269° |
| 2026-04-26 14:28 | 37.41249 | 126.65082 | 35995 ft | 405 kts | 269° |
| 2026-04-26 14:28 | 37.41214 | 126.57990 | 35997 ft | 405 kts | 269° |
| 2026-04-26 14:29 | 37.41172 | 126.50906 | 36002 ft | 405 kts | 269° |
| 2026-04-26 14:29 | 37.41130 | 126.43809 | 36003 ft | 405 kts | 269° |
| 2026-04-26 14:30 | 37.41079 | 126.36736 | 36004 ft | 405 kts | 269° |
| 2026-04-26 14:30 | 37.41019 | 126.29610 | 36001 ft | 405 kts | 269° |
| 2026-04-26 14:31 | 37.40960 | 126.22566 | 36000 ft | 404 kts | 269° |
| 2026-04-26 14:31 | 37.40902 | 126.15459 | 35998 ft | 404 kts | 269° |
| 2026-04-26 14:32 | 37.40839 | 126.08391 | 35997 ft | 404 kts | 269° |
| 2026-04-26 14:32 | 37.40766 | 126.01324 | 35996 ft | 404 kts | 269° |
| 2026-04-26 14:33 | 37.40690 | 125.94252 | 36000 ft | 404 kts | 269° |
| 2026-04-26 14:33 | 37.40618 | 125.87191 | 36001 ft | 404 kts | 269° |
| 2026-04-26 14:34 | 37.40537 | 125.80117 | 36007 ft | 404 kts | 269° |
| 2026-04-26 14:34 | 37.40443 | 125.73052 | 36012 ft | 404 kts | 269° |
| 2026-04-26 14:35 | 37.40342 | 125.65985 | 36013 ft | 404 kts | 269° |
| 2026-04-26 14:35 | 37.40248 | 125.58916 | 36017 ft | 404 kts | 270° |
| 2026-04-26 14:36 | 37.40146 | 125.51842 | 36017 ft | 404 kts | 270° |
| 2026-04-26 14:36 | 37.40040 | 125.44789 | 36017 ft | 404 kts | 270° |
| 2026-04-26 14:37 | 37.39932 | 125.37720 | 36017 ft | 403 kts | 270° |
| 2026-04-26 14:37 | 37.39821 | 125.30636 | 36016 ft | 403 kts | 270° |
| 2026-04-26 14:38 | 37.39705 | 125.23560 | 36020 ft | 403 kts | 270° |
| 2026-04-26 14:38 | 37.39587 | 125.16571 | 36017 ft | 402 kts | 270° |
| 2026-04-26 14:39 | 37.39463 | 125.09553 | 36017 ft | 402 kts | 270° |
| 2026-04-26 14:39 | 37.39336 | 125.02516 | 36016 ft | 402 kts | 270° |
| 2026-04-26 14:40 | 37.39210 | 124.95465 | 36020 ft | 401 kts | 270° |
| 2026-04-26 14:40 | 37.39069 | 124.88500 | 36020 ft | 401 kts | 269° |
| 2026-04-26 14:41 | 37.37809 | 124.81613 | 36020 ft | 408 kts | 250° |
| 2026-04-26 14:41 | 37.34932 | 124.75416 | 36017 ft | 412 kts | 243° |
| 2026-04-26 14:42 | 37.31897 | 124.69299 | 36019 ft | 412 kts | 243° |
| 2026-04-26 14:42 | 37.28880 | 124.63216 | 36017 ft | 411 kts | 243° |
| 2026-04-26 14:43 | 37.25840 | 124.57122 | 36014 ft | 411 kts | 243° |
| 2026-04-26 14:43 | 37.22806 | 124.51055 | 36017 ft | 411 kts | 243° |
| 2026-04-26 14:44 | 37.19794 | 124.44952 | 36014 ft | 408 kts | 248° |
| 2026-04-26 14:44 | 37.18026 | 124.38356 | 36028 ft | 396 kts | 265° |
| 2026-04-26 14:45 | 37.17713 | 124.31482 | 36025 ft | 394 kts | 270° |
| 2026-04-26 14:45 | 37.17492 | 124.24638 | 36031 ft | 393 kts | 270° |
| 2026-04-26 14:46 | 37.17263 | 124.17753 | 36026 ft | 392 kts | 270° |
| 2026-04-26 14:46 | 37.17038 | 124.10956 | 36016 ft | 392 kts | 270° |
| 2026-04-26 14:47 | 37.16915 | 124.04140 | 36011 ft | 389 kts | 277° |
| 2026-04-26 14:47 | 37.18379 | 123.97664 | 36014 ft | 387 kts | 296° |
| 2026-04-26 14:48 | 37.21463 | 123.92104 | 36022 ft | 388 kts | 304° |
| 2026-04-26 14:48 | 37.24720 | 123.86725 | 36020 ft | 388 kts | 304° |
| 2026-04-26 14:49 | 37.27975 | 123.81304 | 36019 ft | 387 kts | 304° |
| 2026-04-26 14:49 | 37.31210 | 123.75916 | 36019 ft | 387 kts | 304° |
| 2026-04-26 14:50 | 37.34451 | 123.70530 | 36022 ft | 386 kts | 304° |
| 2026-04-26 14:50 | 37.37689 | 123.65148 | 36018 ft | 386 kts | 304° |
| 2026-04-26 14:51 | 37.40913 | 123.59774 | 36019 ft | 385 kts | 304° |
| 2026-04-26 14:51 | 37.44139 | 123.54384 | 36018 ft | 385 kts | 304° |
| 2026-04-26 14:52 | 37.47342 | 123.49013 | 36018 ft | 384 kts | 304° |
| 2026-04-26 14:52 | 37.50553 | 123.43619 | 36010 ft | 384 kts | 304° |
| 2026-04-26 14:53 | 37.53730 | 123.38286 | 36013 ft | 384 kts | 304° |
| 2026-04-26 14:53 | 37.56969 | 123.32976 | 36005 ft | 386 kts | 309° |
| 2026-04-26 14:54 | 37.60767 | 123.28112 | 36003 ft | 388 kts | 310° |
| 2026-04-26 14:54 | 37.64570 | 123.23266 | 35996 ft | 388 kts | 310° |
| 2026-04-26 14:55 | 37.68360 | 123.18416 | 35994 ft | 389 kts | 310° |
| 2026-04-26 14:55 | 37.72171 | 123.13539 | 35989 ft | 389 kts | 310° |
| 2026-04-26 14:56 | 37.75963 | 123.08681 | 35986 ft | 389 kts | 310° |
| 2026-04-26 14:56 | 37.79763 | 123.03788 | 35984 ft | 390 kts | 310° |
| 2026-04-26 14:57 | 37.83559 | 122.98899 | 35978 ft | 390 kts | 310° |
| 2026-04-26 14:57 | 37.87368 | 122.93992 | 35979 ft | 390 kts | 310° |
| 2026-04-26 14:58 | 37.91165 | 122.89089 | 35976 ft | 391 kts | 310° |
| 2026-04-26 14:58 | 37.94986 | 122.84156 | 35972 ft | 392 kts | 310° |
| 2026-04-26 14:59 | 37.98793 | 122.79223 | 35979 ft | 392 kts | 310° |
| 2026-04-26 14:59 | 38.02610 | 122.74269 | 35980 ft | 393 kts | 310° |
| 2026-04-26 15:00 | 38.06434 | 122.69300 | 35981 ft | 393 kts | 310° |
| 2026-04-26 15:00 | 38.10250 | 122.64333 | 35983 ft | 393 kts | 310° |
| 2026-04-26 15:01 | 38.14085 | 122.59377 | 35987 ft | 394 kts | 310° |
| 2026-04-26 15:01 | 38.15387 | 122.57709 | 35876 ft | 395 kts | 310° |
| 2026-04-26 15:01 | 38.17313 | 122.55245 | 35628 ft | 394 kts | 310° |
| 2026-04-26 15:01 | 38.19246 | 122.52765 | 34998 ft | 395 kts | 310° |
| 2026-04-26 15:02 | 38.21171 | 122.50287 | 34246 ft | 393 kts | 310° |
| 2026-04-26 15:02 | 38.23165 | 122.47946 | 33383 ft | 391 kts | 317° |
| 2026-04-26 15:02 | 38.25459 | 122.46029 | 32419 ft | 394 kts | 326° |
| 2026-04-26 15:02 | 38.27989 | 122.44636 | 31363 ft | 403 kts | 336° |
| 2026-04-26 15:03 | 38.30745 | 122.43780 | 30351 ft | 415 kts | 342° |
| 2026-04-26 15:03 | 38.33625 | 122.43023 | 29132 ft | 425 kts | 342° |
| 2026-04-26 15:03 | 38.36541 | 122.42248 | 28162 ft | 429 kts | 342° |
| 2026-04-26 15:03 | 38.39387 | 122.41288 | 27456 ft | 419 kts | 335° |
| 2026-04-26 15:04 | 38.42038 | 122.39818 | 26760 ft | 410 kts | 326° |
| 2026-04-26 15:04 | 38.44420 | 122.37927 | 26087 ft | 402 kts | 320° |
| 2026-04-26 15:04 | 38.46709 | 122.35888 | 25427 ft | 399 kts | 320° |
| 2026-04-26 15:04 | 38.48981 | 122.33878 | 24784 ft | 396 kts | 321° |
| 2026-04-26 15:05 | 38.51243 | 122.31881 | 24145 ft | 393 kts | 321° |
| 2026-04-26 15:05 | 38.52759 | 122.30544 | 23728 ft | 392 kts | 321° |
| 2026-04-26 15:05 | 38.55743 | 122.27911 | 22843 ft | 387 kts | 321° |
| 2026-04-26 15:05 | 38.57948 | 122.25963 | 22271 ft | 382 kts | 321° |
| 2026-04-26 15:06 | 38.60094 | 122.24064 | 21723 ft | 379 kts | 321° |
| 2026-04-26 15:06 | 38.62273 | 122.22133 | 21200 ft | 375 kts | 322° |
| 2026-04-26 15:06 | 38.64400 | 122.20243 | 20685 ft | 371 kts | 322° |
| 2026-04-26 15:06 | 38.66517 | 122.18362 | 20188 ft | 367 kts | 322° |
| 2026-04-26 15:07 | 38.70665 | 122.14669 | 19227 ft | 360 kts | 322° |
| 2026-04-26 15:07 | 38.72698 | 122.12825 | 18740 ft | 357 kts | 321° |
| 2026-04-26 15:07 | 38.74646 | 122.10893 | 18278 ft | 352 kts | 314° |
| 2026-04-26 15:08 | 38.76273 | 122.08562 | 17764 ft | 347 kts | 304° |
| 2026-04-26 15:08 | 38.77500 | 122.05955 | 17305 ft | 342 kts | 294° |
| 2026-04-26 15:08 | 38.78340 | 122.03112 | 16858 ft | 339 kts | 285° |
| 2026-04-26 15:08 | 38.78870 | 122.00187 | 16388 ft | 337 kts | 282° |
| 2026-04-26 15:09 | 38.79384 | 121.97266 | 15926 ft | 335 kts | 283° |
| 2026-04-26 15:09 | 38.79895 | 121.94364 | 15451 ft | 333 kts | 283° |
| 2026-04-26 15:09 | 38.80401 | 121.91479 | 14974 ft | 331 kts | 283° |
| 2026-04-26 15:09 | 38.80903 | 121.88614 | 14488 ft | 329 kts | 283° |
| 2026-04-26 15:10 | 38.81407 | 121.85747 | 14004 ft | 328 kts | 283° |
| 2026-04-26 15:10 | 38.81743 | 121.83830 | 13662 ft | 327 kts | 283° |
| 2026-04-26 15:10 | 38.82397 | 121.80074 | 12976 ft | 325 kts | 283° |
| 2026-04-26 15:10 | 38.82884 | 121.77253 | 12463 ft | 322 kts | 282° |
| 2026-04-26 15:11 | 38.83364 | 121.74458 | 11965 ft | 320 kts | 282° |
| 2026-04-26 15:11 | 38.83843 | 121.71668 | 11450 ft | 319 kts | 282° |
| 2026-04-26 15:11 | 38.84319 | 121.68899 | 10939 ft | 317 kts | 282° |
| 2026-04-26 15:11 | 38.84787 | 121.66167 | 10683 ft | 302 kts | 282° |
| 2026-04-26 15:12 | 38.85220 | 121.63643 | 10429 ft | 284 kts | 282° |
| 2026-04-26 15:12 | 38.85640 | 121.61200 | 10073 ft | 276 kts | 282° |
| 2026-04-26 15:12 | 38.86052 | 121.58806 | 9874 ft | 273 kts | 282° |
| 2026-04-26 15:12 | 38.86450 | 121.56473 | 9748 ft | 262 kts | 282° |
| 2026-04-26 15:13 | 38.86835 | 121.54209 | 9614 ft | 251 kts | 282° |
| 2026-04-26 15:13 | 38.87201 | 121.52064 | 9480 ft | 242 kts | 282° |
| 2026-04-26 15:13 | 38.87551 | 121.50016 | 9348 ft | 232 kts | 282° |
| 2026-04-26 15:13 | 38.87835 | 121.48007 | 9216 ft | 223 kts | 275° |
| 2026-04-26 15:14 | 38.87976 | 121.46027 | 9077 ft | 223 kts | 275° |
| 2026-04-26 15:14 | 38.88127 | 121.43977 | 8406 ft | 237 kts | 275° |
| 2026-04-26 15:14 | 38.88288 | 121.41851 | 7823 ft | 246 kts | 275° |
| 2026-04-26 15:14 | 38.88458 | 121.39610 | 7324 ft | 252 kts | 275° |
| 2026-04-26 15:15 | 38.88627 | 121.37360 | 6903 ft | 254 kts | 275° |
| 2026-04-26 15:15 | 38.88793 | 121.35118 | 6597 ft | 251 kts | 275° |
| 2026-04-26 15:15 | 38.88957 | 121.32938 | 6468 ft | 239 kts | 275° |
| 2026-04-26 15:15 | 38.89112 | 121.30902 | 6341 ft | 222 kts | 275° |
| 2026-04-26 15:16 | 38.89426 | 121.28998 | 6153 ft | 217 kts | 295° |
| 2026-04-26 15:16 | 38.90334 | 121.27485 | 5845 ft | 216 kts | 322° |
| 2026-04-26 15:16 | 38.91694 | 121.26671 | 5484 ft | 219 kts | 349° |
| 2026-04-26 15:16 | 38.93220 | 121.26735 | 5096 ft | 223 kts | 13° |
| 2026-04-26 15:17 | 38.94670 | 121.27472 | 4685 ft | 226 kts | 32° |
| 2026-04-26 15:17 | 38.95515 | 121.28291 | 4395 ft | 229 kts | 44° |
| 2026-04-26 15:17 | 38.96707 | 121.30592 | 3683 ft | 238 kts | 71° |
| 2026-04-26 15:17 | 38.97002 | 121.32668 | 3360 ft | 234 kts | 90° |
| 2026-04-26 15:18 | 38.96969 | 121.34751 | 3033 ft | 232 kts | 92° |
| 2026-04-26 15:18 | 38.96933 | 121.36782 | 2704 ft | 223 kts | 91° |
| 2026-04-26 15:18 | 38.96904 | 121.38728 | 2381 ft | 213 kts | 91° |
| 2026-04-26 15:18 | 38.96877 | 121.40606 | 2101 ft | 207 kts | 92° |
| 2026-04-26 15:19 | 38.96852 | 121.42362 | 1784 ft | 186 kts | 91° |
| 2026-04-26 15:19 | 38.96829 | 121.43919 | 1540 ft | 162 kts | 91° |
| 2026-04-26 15:19 | 38.96809 | 121.45279 | 1302 ft | 144 kts | 91° |
| 2026-04-26 15:19 | 38.96790 | 121.46516 | 1092 ft | 133 kts | 91° |
| 2026-04-26 15:20 | 38.96773 | 121.47688 | 891 ft | 130 kts | 91° |
| 2026-04-26 15:20 | 38.96756 | 121.48858 | 700 ft | 129 kts | 91° |
| 2026-04-26 15:20 | 38.96738 | 121.50014 | 528 ft | 130 kts | 91° |
| 2026-04-26 15:20 | 38.96719 | 121.51173 | 332 ft | 129 kts | 91° |
| 2026-04-26 15:21 | 38.96701 | 121.52326 | 136 ft | 129 kts | 94° |
| 2026-04-26 15:21 | 38.96598 | 121.53232 | 113 ft | 63 kts | 96° |
| 2026-04-26 15:21 | 38.96581 | 121.53511 | 116 ft | 23 kts | 94° |
| 2026-04-26 15:21 | 38.96568 | 121.53728 | 116 ft | 27 kts | 95° |
| 2026-04-26 15:22 | 38.96550 | 121.53956 | 116 ft | 16 kts | 97° |
| 2026-04-26 15:22 | 38.96539 | 121.54093 | 116 ft | 15 kts | 97° |
| 2026-04-26 15:22 | 38.96505 | 121.54225 | 115 ft | 17 kts | 117° |
| 2026-04-26 15:22 | 38.96448 | 121.54339 | 112 ft | 0 kts | 125° |
| 2026-04-26 15:24 | 38.96441 | 121.54350 | 113 ft | 3 kts | 125° |
| 2026-04-26 15:24 | 38.96431 | 121.54368 | 116 ft | 2 kts | 128° |
| 2026-04-26 15:24 | 38.96421 | 121.54383 | 113 ft | 4 kts | 133° |
| 2026-04-26 15:24 | 38.96363 | 121.54413 | 115 ft | 11 kts | 175° |
| 2026-04-26 15:25 | 38.96295 | 121.54400 | 114 ft | 9 kts | 182° |
| 2026-04-26 15:25 | 38.96268 | 121.54399 | 114 ft | 5 kts | 182° |
| 2026-04-26 15:25 | 38.96225 | 121.54394 | 111 ft | 4 kts | 185° |
| 2026-04-26 15:25 | 38.96221 | 121.54394 | 115 ft | 0 kts | 185° |